sensor_id;sensor_type;location;lat;lon;timestamp;P1;durP1;ratioP1;P2;durP2;ratioP2
479;SDS011;226;48.606;9.096;2023-04-06T00:00:01;11.00;;;5.93;;
479;SDS011;226;48.606;9.096;2023-04-06T00:02:30;7.50;;;4.20;;
479;SDS011;226;48.606;9.096;2023-04-06T00:04:59;5.73;;;5.23;;
479;SDS011;226;48.606;9.096;2023-04-06T00:07:28;6.50;;;5.90;;
479;SDS011;226;48.606;9.096;2023-04-06T00:09:57;4.27;;;4.07;;
479;SDS011;226;48.606;9.096;2023-04-06T00:12:25;7.10;;;5.50;;
479;SDS011;226;48.606;9.096;2023-04-06T00:14:53;11.70;;;6.60;;
479;SDS011;226;48.606;9.096;2023-04-06T00:17:21;7.07;;;6.37;;
479;SDS011;226;48.606;9.096;2023-04-06T00:19:49;14.73;;;6.40;;
479;SDS011;226;48.606;9.096;2023-04-06T00:22:17;8.07;;;6.00;;
479;SDS011;226;48.606;9.096;2023-04-06T00:24:47;11.03;;;5.63;;
479;SDS011;226;48.606;9.096;2023-04-06T00:27:15;5.93;;;5.17;;
479;SDS011;226;48.606;9.096;2023-04-06T00:29:43;7.57;;;4.70;;
479;SDS011;226;48.606;9.096;2023-04-06T00:32:12;11.70;;;6.10;;
479;SDS011;226;48.606;9.096;2023-04-06T00:34:40;8.83;;;7.93;;
479;SDS011;226;48.606;9.096;2023-04-06T00:37:08;4.90;;;4.23;;
479;SDS011;226;48.606;9.096;2023-04-06T00:39:37;15.03;;;7.80;;
479;SDS011;226;48.606;9.096;2023-04-06T00:42:10;25.43;;;8.03;;
479;SDS011;226;48.606;9.096;2023-04-06T00:44:40;46.20;;;10.57;;
479;SDS011;226;48.606;9.096;2023-04-06T00:47:08;6.83;;;5.57;;
479;SDS011;226;48.606;9.096;2023-04-06T00:49:37;11.77;;;6.53;;
479;SDS011;226;48.606;9.096;2023-04-06T00:52:05;6.93;;;5.03;;
479;SDS011;226;48.606;9.096;2023-04-06T00:54:33;6.60;;;5.90;;
479;SDS011;226;48.606;9.096;2023-04-06T00:57:01;6.53;;;6.03;;
479;SDS011;226;48.606;9.096;2023-04-06T00:59:31;5.33;;;3.83;;
479;SDS011;226;48.606;9.096;2023-04-06T01:01:59;12.63;;;5.57;;
479;SDS011;226;48.606;9.096;2023-04-06T01:04:28;5.80;;;5.30;;
479;SDS011;226;48.606;9.096;2023-04-06T01:06:56;6.43;;;5.00;;
479;SDS011;226;48.606;9.096;2023-04-06T01:09:24;8.93;;;5.67;;
479;SDS011;226;48.606;9.096;2023-04-06T01:11:54;6.47;;;4.47;;
479;SDS011;226;48.606;9.096;2023-04-06T01:14:23;5.90;;;4.03;;
479;SDS011;226;48.606;9.096;2023-04-06T01:16:53;2.87;;;2.77;;
479;SDS011;226;48.606;9.096;2023-04-06T01:19:21;10.60;;;6.13;;
479;SDS011;226;48.606;9.096;2023-04-06T01:21:50;6.20;;;5.60;;
479;SDS011;226;48.606;9.096;2023-04-06T01:24:20;6.17;;;5.00;;
479;SDS011;226;48.606;9.096;2023-04-06T01:26:49;7.70;;;5.13;;
479;SDS011;226;48.606;9.096;2023-04-06T01:29:17;11.97;;;7.50;;
479;SDS011;226;48.606;9.096;2023-04-06T01:31:45;12.40;;;6.63;;
479;SDS011;226;48.606;9.096;2023-04-06T01:34:14;5.60;;;4.50;;
479;SDS011;226;48.606;9.096;2023-04-06T01:36:42;5.37;;;4.40;;
479;SDS011;226;48.606;9.096;2023-04-06T01:39:10;10.93;;;6.70;;
479;SDS011;226;48.606;9.096;2023-04-06T01:41:40;6.93;;;4.63;;
479;SDS011;226;48.606;9.096;2023-04-06T01:44:08;9.73;;;5.37;;
479;SDS011;226;48.606;9.096;2023-04-06T01:46:36;7.10;;;4.47;;
479;SDS011;226;48.606;9.096;2023-04-06T01:49:04;8.40;;;7.53;;
479;SDS011;226;48.606;9.096;2023-04-06T01:51:33;6.20;;;5.40;;
479;SDS011;226;48.606;9.096;2023-04-06T01:54:01;6.00;;;5.50;;
479;SDS011;226;48.606;9.096;2023-04-06T01:56:29;6.50;;;5.93;;
479;SDS011;226;48.606;9.096;2023-04-06T01:58:59;5.30;;;4.90;;
479;SDS011;226;48.606;9.096;2023-04-06T02:01:27;11.73;;;4.37;;
479;SDS011;226;48.606;9.096;2023-04-06T02:03:55;5.20;;;4.70;;
479;SDS011;226;48.606;9.096;2023-04-06T02:06:23;4.60;;;4.20;;
479;SDS011;226;48.606;9.096;2023-04-06T02:08:53;4.90;;;4.57;;
479;SDS011;226;48.606;9.096;2023-04-06T02:11:21;10.90;;;6.70;;
479;SDS011;226;48.606;9.096;2023-04-06T02:13:49;8.33;;;7.53;;
479;SDS011;226;48.606;9.096;2023-04-06T02:16:18;6.33;;;5.67;;
479;SDS011;226;48.606;9.096;2023-04-06T02:18:46;12.23;;;5.00;;
479;SDS011;226;48.606;9.096;2023-04-06T02:21:15;9.27;;;5.30;;
479;SDS011;226;48.606;9.096;2023-04-06T02:23:46;7.33;;;5.50;;
479;SDS011;226;48.606;9.096;2023-04-06T02:26:15;5.03;;;4.47;;
479;SDS011;226;48.606;9.096;2023-04-06T02:28:44;9.77;;;5.70;;
479;SDS011;226;48.606;9.096;2023-04-06T02:31:12;17.97;;;6.63;;
479;SDS011;226;48.606;9.096;2023-04-06T02:33:43;9.47;;;5.47;;
479;SDS011;226;48.606;9.096;2023-04-06T02:36:11;6.33;;;3.83;;
479;SDS011;226;48.606;9.096;2023-04-06T02:38:39;6.60;;;6.10;;
479;SDS011;226;48.606;9.096;2023-04-06T02:41:07;10.67;;;6.20;;
479;SDS011;226;48.606;9.096;2023-04-06T02:43:36;7.27;;;5.10;;
479;SDS011;226;48.606;9.096;2023-04-06T02:46:04;9.50;;;6.23;;
479;SDS011;226;48.606;9.096;2023-04-06T02:48:32;7.63;;;6.93;;
479;SDS011;226;48.606;9.096;2023-04-06T02:51:04;6.40;;;5.50;;
479;SDS011;226;48.606;9.096;2023-04-06T02:53:32;8.43;;;4.87;;
479;SDS011;226;48.606;9.096;2023-04-06T02:56:00;14.30;;;7.47;;
479;SDS011;226;48.606;9.096;2023-04-06T02:58:28;13.00;;;7.60;;
479;SDS011;226;48.606;9.096;2023-04-06T03:00:57;6.27;;;5.83;;
479;SDS011;226;48.606;9.096;2023-04-06T03:03:25;6.27;;;5.87;;
479;SDS011;226;48.606;9.096;2023-04-06T03:05:53;8.87;;;5.47;;
479;SDS011;226;48.606;9.096;2023-04-06T03:08:24;8.33;;;6.53;;
479;SDS011;226;48.606;9.096;2023-04-06T03:10:53;10.20;;;7.07;;
479;SDS011;226;48.606;9.096;2023-04-06T03:13:21;22.97;;;7.30;;
479;SDS011;226;48.606;9.096;2023-04-06T03:15:50;8.17;;;5.50;;
479;SDS011;226;48.606;9.096;2023-04-06T03:18:20;7.77;;;6.77;;
479;SDS011;226;48.606;9.096;2023-04-06T03:20:49;7.53;;;5.20;;
479;SDS011;226;48.606;9.096;2023-04-06T03:23:17;5.70;;;5.30;;
479;SDS011;226;48.606;9.096;2023-04-06T03:25:48;5.43;;;4.93;;
479;SDS011;226;48.606;9.096;2023-04-06T03:28:16;7.33;;;6.77;;
479;SDS011;226;48.606;9.096;2023-04-06T03:30:44;2.70;;;2.60;;
479;SDS011;226;48.606;9.096;2023-04-06T03:33:13;5.80;;;4.87;;
479;SDS011;226;48.606;9.096;2023-04-06T03:35:41;5.10;;;4.67;;
479;SDS011;226;48.606;9.096;2023-04-06T03:38:09;3.43;;;3.33;;
479;SDS011;226;48.606;9.096;2023-04-06T03:40:38;4.07;;;3.80;;
479;SDS011;226;48.606;9.096;2023-04-06T03:43:07;8.20;;;3.73;;
479;SDS011;226;48.606;9.096;2023-04-06T03:45:36;6.33;;;5.70;;
479;SDS011;226;48.606;9.096;2023-04-06T03:48:04;5.00;;;4.50;;
479;SDS011;226;48.606;9.096;2023-04-06T03:50:33;8.30;;;4.57;;
479;SDS011;226;48.606;9.096;2023-04-06T03:53:01;5.03;;;4.73;;
479;SDS011;226;48.606;9.096;2023-04-06T03:55:29;5.43;;;4.93;;
479;SDS011;226;48.606;9.096;2023-04-06T03:57:58;6.00;;;5.50;;
479;SDS011;226;48.606;9.096;2023-04-06T04:00:27;9.87;;;6.03;;
479;SDS011;226;48.606;9.096;2023-04-06T04:02:55;5.50;;;5.13;;
479;SDS011;226;48.606;9.096;2023-04-06T04:05:24;6.80;;;5.70;;
479;SDS011;226;48.606;9.096;2023-04-06T04:07:52;3.90;;;3.60;;
479;SDS011;226;48.606;9.096;2023-04-06T04:10:21;5.80;;;4.50;;
479;SDS011;226;48.606;9.096;2023-04-06T04:12:49;5.10;;;4.60;;
479;SDS011;226;48.606;9.096;2023-04-06T04:15:17;4.57;;;4.27;;
479;SDS011;226;48.606;9.096;2023-04-06T04:17:47;9.40;;;6.70;;
479;SDS011;226;48.606;9.096;2023-04-06T04:20:16;9.23;;;5.20;;
479;SDS011;226;48.606;9.096;2023-04-06T04:22:45;8.63;;;4.30;;
479;SDS011;226;48.606;9.096;2023-04-06T04:25:13;5.10;;;4.80;;
479;SDS011;226;48.606;9.096;2023-04-06T04:27:41;7.40;;;5.90;;
479;SDS011;226;48.606;9.096;2023-04-06T04:30:09;8.73;;;6.33;;
479;SDS011;226;48.606;9.096;2023-04-06T04:32:38;7.27;;;6.60;;
479;SDS011;226;48.606;9.096;2023-04-06T04:35:08;5.13;;;4.80;;
479;SDS011;226;48.606;9.096;2023-04-06T04:37:37;4.90;;;4.70;;
479;SDS011;226;48.606;9.096;2023-04-06T04:40:06;5.00;;;4.70;;
479;SDS011;226;48.606;9.096;2023-04-06T04:42:35;5.17;;;4.60;;
479;SDS011;226;48.606;9.096;2023-04-06T04:45:03;6.73;;;5.93;;
479;SDS011;226;48.606;9.096;2023-04-06T04:47:32;6.23;;;5.80;;
479;SDS011;226;48.606;9.096;2023-04-06T04:50:00;4.57;;;4.20;;
479;SDS011;226;48.606;9.096;2023-04-06T04:52:30;3.30;;;3.10;;
479;SDS011;226;48.606;9.096;2023-04-06T04:54:58;4.27;;;3.87;;
479;SDS011;226;48.606;9.096;2023-04-06T04:57:26;7.00;;;5.33;;
479;SDS011;226;48.606;9.096;2023-04-06T04:59:54;3.90;;;3.70;;
479;SDS011;226;48.606;9.096;2023-04-06T05:02:23;6.43;;;5.80;;
479;SDS011;226;48.606;9.096;2023-04-06T05:04:52;6.80;;;5.97;;
479;SDS011;226;48.606;9.096;2023-04-06T05:07:20;9.13;;;5.60;;
479;SDS011;226;48.606;9.096;2023-04-06T05:09:50;6.67;;;5.40;;
479;SDS011;226;48.606;9.096;2023-04-06T05:12:18;28.23;;;5.40;;
479;SDS011;226;48.606;9.096;2023-04-06T05:14:46;6.67;;;5.73;;
479;SDS011;226;48.606;9.096;2023-04-06T05:17:15;34.13;;;6.90;;
479;SDS011;226;48.606;9.096;2023-04-06T05:19:43;4.33;;;4.13;;
479;SDS011;226;48.606;9.096;2023-04-06T05:22:11;4.43;;;3.53;;
479;SDS011;226;48.606;9.096;2023-04-06T05:24:42;12.00;;;6.40;;
479;SDS011;226;48.606;9.096;2023-04-06T05:27:12;4.90;;;3.43;;
479;SDS011;226;48.606;9.096;2023-04-06T05:29:40;8.67;;;4.57;;
479;SDS011;226;48.606;9.096;2023-04-06T05:32:08;6.13;;;5.30;;
479;SDS011;226;48.606;9.096;2023-04-06T05:34:37;13.50;;;6.43;;
479;SDS011;226;48.606;9.096;2023-04-06T05:37:05;36.93;;;11.00;;
479;SDS011;226;48.606;9.096;2023-04-06T05:39:33;12.10;;;7.27;;
479;SDS011;226;48.606;9.096;2023-04-06T05:42:03;6.20;;;5.63;;
479;SDS011;226;48.606;9.096;2023-04-06T05:44:34;14.20;;;6.47;;
479;SDS011;226;48.606;9.096;2023-04-06T05:47:04;11.07;;;6.80;;
479;SDS011;226;48.606;9.096;2023-04-06T05:49:32;7.10;;;6.40;;
479;SDS011;226;48.606;9.096;2023-04-06T05:52:00;7.17;;;5.60;;
479;SDS011;226;48.606;9.096;2023-04-06T05:54:29;9.03;;;6.80;;
479;SDS011;226;48.606;9.096;2023-04-06T05:56:57;9.80;;;7.97;;
479;SDS011;226;48.606;9.096;2023-04-06T05:59:25;14.57;;;7.27;;
479;SDS011;226;48.606;9.096;2023-04-06T06:01:55;14.60;;;9.47;;
479;SDS011;226;48.606;9.096;2023-04-06T06:04:23;6.90;;;5.87;;
479;SDS011;226;48.606;9.096;2023-04-06T06:06:51;10.77;;;9.20;;
479;SDS011;226;48.606;9.096;2023-04-06T06:09:19;10.17;;;5.40;;
479;SDS011;226;48.606;9.096;2023-04-06T06:11:48;7.03;;;6.13;;
479;SDS011;226;48.606;9.096;2023-04-06T06:14:17;11.70;;;7.50;;
479;SDS011;226;48.606;9.096;2023-04-06T06:16:45;16.00;;;10.13;;
479;SDS011;226;48.606;9.096;2023-04-06T06:19:15;13.30;;;7.80;;
479;SDS011;226;48.606;9.096;2023-04-06T06:21:43;16.20;;;7.37;;
479;SDS011;226;48.606;9.096;2023-04-06T06:24:11;11.63;;;8.27;;
479;SDS011;226;48.606;9.096;2023-04-06T06:26:39;11.30;;;7.77;;
479;SDS011;226;48.606;9.096;2023-04-06T06:29:07;11.50;;;7.50;;
479;SDS011;226;48.606;9.096;2023-04-06T06:31:36;12.93;;;6.83;;
479;SDS011;226;48.606;9.096;2023-04-06T06:34:04;9.93;;;7.90;;
479;SDS011;226;48.606;9.096;2023-04-06T06:36:34;18.57;;;9.50;;
479;SDS011;226;48.606;9.096;2023-04-06T06:39:02;15.00;;;10.10;;
479;SDS011;226;48.606;9.096;2023-04-06T06:41:30;14.57;;;9.63;;
479;SDS011;226;48.606;9.096;2023-04-06T06:43:58;10.10;;;7.33;;
479;SDS011;226;48.606;9.096;2023-04-06T06:46:27;12.23;;;9.10;;
479;SDS011;226;48.606;9.096;2023-04-06T06:48:55;18.90;;;10.83;;
479;SDS011;226;48.606;9.096;2023-04-06T06:51:24;21.17;;;9.40;;
479;SDS011;226;48.606;9.096;2023-04-06T06:53:54;11.33;;;8.60;;
479;SDS011;226;48.606;9.096;2023-04-06T06:56:22;18.50;;;8.40;;
479;SDS011;226;48.606;9.096;2023-04-06T06:58:50;10.60;;;8.07;;
479;SDS011;226;48.606;9.096;2023-04-06T07:01:18;12.80;;;8.53;;
479;SDS011;226;48.606;9.096;2023-04-06T07:03:47;12.17;;;9.40;;
479;SDS011;226;48.606;9.096;2023-04-06T07:06:15;14.70;;;7.10;;
479;SDS011;226;48.606;9.096;2023-04-06T07:08:43;11.73;;;7.90;;
479;SDS011;226;48.606;9.096;2023-04-06T07:11:13;9.53;;;8.50;;
479;SDS011;226;48.606;9.096;2023-04-06T07:13:41;17.57;;;9.60;;
479;SDS011;226;48.606;9.096;2023-04-06T07:16:10;13.33;;;7.47;;
479;SDS011;226;48.606;9.096;2023-04-06T07:18:38;14.47;;;7.53;;
479;SDS011;226;48.606;9.096;2023-04-06T07:21:06;13.03;;;8.00;;
479;SDS011;226;48.606;9.096;2023-04-06T07:23:34;15.10;;;7.53;;
479;SDS011;226;48.606;9.096;2023-04-06T07:26:03;8.10;;;6.13;;
479;SDS011;226;48.606;9.096;2023-04-06T07:28:32;13.60;;;7.47;;
479;SDS011;226;48.606;9.096;2023-04-06T07:31:01;6.10;;;5.47;;
479;SDS011;226;48.606;9.096;2023-04-06T07:33:29;11.43;;;6.43;;
479;SDS011;226;48.606;9.096;2023-04-06T07:35:57;13.83;;;7.40;;
479;SDS011;226;48.606;9.096;2023-04-06T07:38:26;15.13;;;7.10;;
479;SDS011;226;48.606;9.096;2023-04-06T07:40:54;7.47;;;6.23;;
479;SDS011;226;48.606;9.096;2023-04-06T07:43:22;5.73;;;5.17;;
479;SDS011;226;48.606;9.096;2023-04-06T07:45:52;20.60;;;6.30;;
479;SDS011;226;48.606;9.096;2023-04-06T07:48:21;10.80;;;6.40;;
479;SDS011;226;48.606;9.096;2023-04-06T07:50:49;13.97;;;5.87;;
479;SDS011;226;48.606;9.096;2023-04-06T07:53:17;12.80;;;6.17;;
479;SDS011;226;48.606;9.096;2023-04-06T07:55:45;13.90;;;6.30;;
479;SDS011;226;48.606;9.096;2023-04-06T07:58:13;6.80;;;4.77;;
479;SDS011;226;48.606;9.096;2023-04-06T08:00:41;15.27;;;6.20;;
479;SDS011;226;48.606;9.096;2023-04-06T08:03:11;11.17;;;5.10;;
479;SDS011;226;48.606;9.096;2023-04-06T08:05:39;12.83;;;5.70;;
479;SDS011;226;48.606;9.096;2023-04-06T08:08:08;13.37;;;5.40;;
479;SDS011;226;48.606;9.096;2023-04-06T08:10:36;9.60;;;5.50;;
479;SDS011;226;48.606;9.096;2023-04-06T08:13:04;13.50;;;6.10;;
479;SDS011;226;48.606;9.096;2023-04-06T08:15:34;10.57;;;6.27;;
479;SDS011;226;48.606;9.096;2023-04-06T08:18:02;12.53;;;6.50;;
479;SDS011;226;48.606;9.096;2023-04-06T08:20:33;10.67;;;5.50;;
479;SDS011;226;48.606;9.096;2023-04-06T08:23:01;14.77;;;6.40;;
479;SDS011;226;48.606;9.096;2023-04-06T08:25:30;15.33;;;6.83;;
479;SDS011;226;48.606;9.096;2023-04-06T08:27:58;17.63;;;6.70;;
479;SDS011;226;48.606;9.096;2023-04-06T08:30:26;8.33;;;5.33;;
479;SDS011;226;48.606;9.096;2023-04-06T08:32:54;18.63;;;6.37;;
479;SDS011;226;48.606;9.096;2023-04-06T08:35:23;6.03;;;5.13;;
479;SDS011;226;48.606;9.096;2023-04-06T08:37:52;10.23;;;5.47;;
479;SDS011;226;48.606;9.096;2023-04-06T08:40:20;13.03;;;6.70;;
479;SDS011;226;48.606;9.096;2023-04-06T08:42:49;14.27;;;7.10;;
479;SDS011;226;48.606;9.096;2023-04-06T08:45:19;18.90;;;6.90;;
479;SDS011;226;48.606;9.096;2023-04-06T08:47:48;10.43;;;5.50;;
479;SDS011;226;48.606;9.096;2023-04-06T08:50:18;18.27;;;5.90;;
479;SDS011;226;48.606;9.096;2023-04-06T08:52:48;10.30;;;6.17;;
479;SDS011;226;48.606;9.096;2023-04-06T08:55:17;14.23;;;5.67;;
479;SDS011;226;48.606;9.096;2023-04-06T08:57:46;8.17;;;6.10;;
479;SDS011;226;48.606;9.096;2023-04-06T09:00:15;14.60;;;6.30;;
479;SDS011;226;48.606;9.096;2023-04-06T09:02:45;20.47;;;7.33;;
479;SDS011;226;48.606;9.096;2023-04-06T09:05:14;10.53;;;6.50;;
479;SDS011;226;48.606;9.096;2023-04-06T09:07:44;11.63;;;5.60;;
479;SDS011;226;48.606;9.096;2023-04-06T09:10:12;14.23;;;6.73;;
479;SDS011;226;48.606;9.096;2023-04-06T09:12:43;11.50;;;5.70;;
479;SDS011;226;48.606;9.096;2023-04-06T09:15:17;10.50;;;6.10;;
479;SDS011;226;48.606;9.096;2023-04-06T09:17:50;13.27;;;7.10;;
479;SDS011;226;48.606;9.096;2023-04-06T09:20:22;15.80;;;6.30;;
479;SDS011;226;48.606;9.096;2023-04-06T09:22:52;10.70;;;5.70;;
479;SDS011;226;48.606;9.096;2023-04-06T09:25:21;12.77;;;5.53;;
479;SDS011;226;48.606;9.096;2023-04-06T09:27:59;17.70;;;5.70;;
479;SDS011;226;48.606;9.096;2023-04-06T09:30:28;10.97;;;5.60;;
479;SDS011;226;48.606;9.096;2023-04-06T09:32:57;8.70;;;5.20;;
479;SDS011;226;48.606;9.096;2023-04-06T09:35:26;12.27;;;5.70;;
479;SDS011;226;48.606;9.096;2023-04-06T09:37:57;8.63;;;5.70;;
479;SDS011;226;48.606;9.096;2023-04-06T09:40:25;10.27;;;4.63;;
479;SDS011;226;48.606;9.096;2023-04-06T09:42:55;8.57;;;4.77;;
479;SDS011;226;48.606;9.096;2023-04-06T09:45:27;8.83;;;5.40;;
479;SDS011;226;48.606;9.096;2023-04-06T09:47:57;9.27;;;4.73;;
479;SDS011;226;48.606;9.096;2023-04-06T09:50:27;8.33;;;5.70;;
479;SDS011;226;48.606;9.096;2023-04-06T09:52:56;13.47;;;6.00;;
479;SDS011;226;48.606;9.096;2023-04-06T09:55:28;18.73;;;6.13;;
479;SDS011;226;48.606;9.096;2023-04-06T09:58:04;7.93;;;5.10;;
479;SDS011;226;48.606;9.096;2023-04-06T10:00:39;10.93;;;5.90;;
479;SDS011;226;48.606;9.096;2023-04-06T10:03:13;6.67;;;4.93;;
479;SDS011;226;48.606;9.096;2023-04-06T10:05:50;12.20;;;5.63;;
479;SDS011;226;48.606;9.096;2023-04-06T10:08:24;10.83;;;5.10;;
479;SDS011;226;48.606;9.096;2023-04-06T10:10:58;13.07;;;5.60;;
479;SDS011;226;48.606;9.096;2023-04-06T10:13:27;11.90;;;5.97;;
479;SDS011;226;48.606;9.096;2023-04-06T10:15:57;9.50;;;5.10;;
479;SDS011;226;48.606;9.096;2023-04-06T10:18:28;7.93;;;3.60;;
479;SDS011;226;48.606;9.096;2023-04-06T10:20:57;11.30;;;5.20;;
479;SDS011;226;48.606;9.096;2023-04-06T10:23:32;6.07;;;4.60;;
479;SDS011;226;48.606;9.096;2023-04-06T10:26:03;9.90;;;5.20;;
479;SDS011;226;48.606;9.096;2023-04-06T10:28:31;13.53;;;4.57;;
479;SDS011;226;48.606;9.096;2023-04-06T10:31:04;9.40;;;4.33;;
479;SDS011;226;48.606;9.096;2023-04-06T10:33:33;12.90;;;4.50;;
479;SDS011;226;48.606;9.096;2023-04-06T10:36:09;8.70;;;4.40;;
479;SDS011;226;48.606;9.096;2023-04-06T10:38:38;8.20;;;4.60;;
479;SDS011;226;48.606;9.096;2023-04-06T10:41:08;7.20;;;3.60;;
479;SDS011;226;48.606;9.096;2023-04-06T10:43:37;8.83;;;3.83;;
479;SDS011;226;48.606;9.096;2023-04-06T10:46:08;7.20;;;4.20;;
479;SDS011;226;48.606;9.096;2023-04-06T10:48:38;7.23;;;4.60;;
479;SDS011;226;48.606;9.096;2023-04-06T10:51:08;6.73;;;4.03;;
479;SDS011;226;48.606;9.096;2023-04-06T10:53:37;10.30;;;5.10;;
479;SDS011;226;48.606;9.096;2023-04-06T10:56:09;6.67;;;5.50;;
479;SDS011;226;48.606;9.096;2023-04-06T10:58:38;6.70;;;3.80;;
479;SDS011;226;48.606;9.096;2023-04-06T11:01:15;8.03;;;4.20;;
479;SDS011;226;48.606;9.096;2023-04-06T11:03:44;11.43;;;3.50;;
479;SDS011;226;48.606;9.096;2023-04-06T11:06:19;12.13;;;4.20;;
479;SDS011;226;48.606;9.096;2023-04-06T11:08:48;11.47;;;4.10;;
479;SDS011;226;48.606;9.096;2023-04-06T11:11:17;7.47;;;4.17;;
479;SDS011;226;48.606;9.096;2023-04-06T11:13:48;6.10;;;3.27;;
479;SDS011;226;48.606;9.096;2023-04-06T11:16:20;4.87;;;3.43;;
479;SDS011;226;48.606;9.096;2023-04-06T11:18:49;5.53;;;4.40;;
479;SDS011;226;48.606;9.096;2023-04-06T11:21:19;5.70;;;3.30;;
479;SDS011;226;48.606;9.096;2023-04-06T11:24:03;5.50;;;3.10;;
479;SDS011;226;48.606;9.096;2023-04-06T11:26:39;3.53;;;3.23;;
479;SDS011;226;48.606;9.096;2023-04-06T11:29:10;6.87;;;3.27;;
479;SDS011;226;48.606;9.096;2023-04-06T11:31:41;5.90;;;3.43;;
479;SDS011;226;48.606;9.096;2023-04-06T11:34:12;6.40;;;3.60;;
479;SDS011;226;48.606;9.096;2023-04-06T11:36:43;6.07;;;3.60;;
479;SDS011;226;48.606;9.096;2023-04-06T11:39:13;5.13;;;3.87;;
479;SDS011;226;48.606;9.096;2023-04-06T11:41:47;7.20;;;3.33;;
479;SDS011;226;48.606;9.096;2023-04-06T11:44:26;5.80;;;4.23;;
479;SDS011;226;48.606;9.096;2023-04-06T11:46:58;7.33;;;3.30;;
479;SDS011;226;48.606;9.096;2023-04-06T11:49:28;7.17;;;4.40;;
479;SDS011;226;48.606;9.096;2023-04-06T11:51:56;9.90;;;4.20;;
479;SDS011;226;48.606;9.096;2023-04-06T11:54:32;7.83;;;4.40;;
479;SDS011;226;48.606;9.096;2023-04-06T11:57:01;5.53;;;3.00;;
479;SDS011;226;48.606;9.096;2023-04-06T11:59:30;3.90;;;3.03;;
479;SDS011;226;48.606;9.096;2023-04-06T12:02:01;7.17;;;3.80;;
479;SDS011;226;48.606;9.096;2023-04-06T12:04:30;6.40;;;3.57;;
479;SDS011;226;48.606;9.096;2023-04-06T12:06:58;7.40;;;4.27;;
479;SDS011;226;48.606;9.096;2023-04-06T12:09:26;8.77;;;4.17;;
479;SDS011;226;48.606;9.096;2023-04-06T12:11:54;5.70;;;3.77;;
479;SDS011;226;48.606;9.096;2023-04-06T12:14:23;7.30;;;3.57;;
479;SDS011;226;48.606;9.096;2023-04-06T12:16:51;5.50;;;3.60;;
479;SDS011;226;48.606;9.096;2023-04-06T12:19:21;5.70;;;3.00;;
479;SDS011;226;48.606;9.096;2023-04-06T12:21:52;8.00;;;3.90;;
479;SDS011;226;48.606;9.096;2023-04-06T12:24:20;7.67;;;3.67;;
479;SDS011;226;48.606;9.096;2023-04-06T12:26:49;6.13;;;3.23;;
479;SDS011;226;48.606;9.096;2023-04-06T12:29:32;5.37;;;4.10;;
479;SDS011;226;48.606;9.096;2023-04-06T12:32:00;10.20;;;3.33;;
479;SDS011;226;48.606;9.096;2023-04-06T12:34:30;7.40;;;3.50;;
479;SDS011;226;48.606;9.096;2023-04-06T12:36:58;7.27;;;4.10;;
479;SDS011;226;48.606;9.096;2023-04-06T12:39:27;5.13;;;3.03;;
479;SDS011;226;48.606;9.096;2023-04-06T12:41:55;5.63;;;3.43;;
479;SDS011;226;48.606;9.096;2023-04-06T12:44:24;6.37;;;2.97;;
479;SDS011;226;48.606;9.096;2023-04-06T12:46:52;11.97;;;4.63;;
479;SDS011;226;48.606;9.096;2023-04-06T12:49:21;4.57;;;3.23;;
479;SDS011;226;48.606;9.096;2023-04-06T12:51:51;10.60;;;3.87;;
479;SDS011;226;48.606;9.096;2023-04-06T12:54:19;9.37;;;4.33;;
479;SDS011;226;48.606;9.096;2023-04-06T12:56:47;6.63;;;3.67;;
479;SDS011;226;48.606;9.096;2023-04-06T12:59:15;6.57;;;3.77;;
479;SDS011;226;48.606;9.096;2023-04-06T13:01:44;7.00;;;4.30;;
479;SDS011;226;48.606;9.096;2023-04-06T13:04:12;8.10;;;4.37;;
479;SDS011;226;48.606;9.096;2023-04-06T13:06:40;7.20;;;4.50;;
479;SDS011;226;48.606;9.096;2023-04-06T13:09:10;6.20;;;4.23;;
479;SDS011;226;48.606;9.096;2023-04-06T13:11:38;9.90;;;4.30;;
479;SDS011;226;48.606;9.096;2023-04-06T13:14:07;6.07;;;3.87;;
479;SDS011;226;48.606;9.096;2023-04-06T13:16:36;7.47;;;4.60;;
479;SDS011;226;48.606;9.096;2023-04-06T13:19:04;6.80;;;4.10;;
479;SDS011;226;48.606;9.096;2023-04-06T13:21:32;7.63;;;3.77;;
479;SDS011;226;48.606;9.096;2023-04-06T13:24:01;6.50;;;3.77;;
479;SDS011;226;48.606;9.096;2023-04-06T13:26:30;5.23;;;3.67;;
479;SDS011;226;48.606;9.096;2023-04-06T13:28:59;5.97;;;4.53;;
479;SDS011;226;48.606;9.096;2023-04-06T13:31:28;4.43;;;3.07;;
479;SDS011;226;48.606;9.096;2023-04-06T13:33:57;10.50;;;4.47;;
479;SDS011;226;48.606;9.096;2023-04-06T13:36:25;5.30;;;4.23;;
479;SDS011;226;48.606;9.096;2023-04-06T13:38:54;7.67;;;4.17;;
479;SDS011;226;48.606;9.096;2023-04-06T13:41:23;4.40;;;4.00;;
479;SDS011;226;48.606;9.096;2023-04-06T13:43:54;9.03;;;3.73;;
479;SDS011;226;48.606;9.096;2023-04-06T13:46:24;7.10;;;4.27;;
479;SDS011;226;48.606;9.096;2023-04-06T13:48:54;5.47;;;3.83;;
479;SDS011;226;48.606;9.096;2023-04-06T13:51:22;7.40;;;3.90;;
479;SDS011;226;48.606;9.096;2023-04-06T13:53:50;7.93;;;4.60;;
479;SDS011;226;48.606;9.096;2023-04-06T13:56:19;6.50;;;4.17;;
479;SDS011;226;48.606;9.096;2023-04-06T13:58:47;7.23;;;4.50;;
479;SDS011;226;48.606;9.096;2023-04-06T14:01:17;6.20;;;4.23;;
479;SDS011;226;48.606;9.096;2023-04-06T14:03:45;8.83;;;3.50;;
479;SDS011;226;48.606;9.096;2023-04-06T14:06:15;4.57;;;4.10;;
479;SDS011;226;48.606;9.096;2023-04-06T14:08:57;7.10;;;3.93;;
479;SDS011;226;48.606;9.096;2023-04-06T14:11:26;7.40;;;3.60;;
479;SDS011;226;48.606;9.096;2023-04-06T14:13:55;7.87;;;4.60;;
479;SDS011;226;48.606;9.096;2023-04-06T14:16:25;6.30;;;4.10;;
479;SDS011;226;48.606;9.096;2023-04-06T14:18:53;7.03;;;4.73;;
479;SDS011;226;48.606;9.096;2023-04-06T14:21:24;10.97;;;4.90;;
479;SDS011;226;48.606;9.096;2023-04-06T14:23:52;4.80;;;4.13;;
479;SDS011;226;48.606;9.096;2023-04-06T14:26:24;9.17;;;5.60;;
479;SDS011;226;48.606;9.096;2023-04-06T14:28:52;8.43;;;4.30;;
479;SDS011;226;48.606;9.096;2023-04-06T14:31:21;8.40;;;4.60;;
479;SDS011;226;48.606;9.096;2023-04-06T14:33:50;8.87;;;5.03;;
479;SDS011;226;48.606;9.096;2023-04-06T14:36:18;9.10;;;5.03;;
479;SDS011;226;48.606;9.096;2023-04-06T14:38:46;8.27;;;4.80;;
479;SDS011;226;48.606;9.096;2023-04-06T14:41:15;6.93;;;4.97;;
479;SDS011;226;48.606;9.096;2023-04-06T14:43:45;9.53;;;4.97;;
479;SDS011;226;48.606;9.096;2023-04-06T14:46:14;8.17;;;4.00;;
479;SDS011;226;48.606;9.096;2023-04-06T14:48:43;5.97;;;4.60;;
479;SDS011;226;48.606;9.096;2023-04-06T14:51:12;9.40;;;4.70;;
479;SDS011;226;48.606;9.096;2023-04-06T14:53:41;7.03;;;4.10;;
479;SDS011;226;48.606;9.096;2023-04-06T14:56:09;7.80;;;4.17;;
479;SDS011;226;48.606;9.096;2023-04-06T14:58:37;13.20;;;6.07;;
479;SDS011;226;48.606;9.096;2023-04-06T15:01:05;10.70;;;4.53;;
479;SDS011;226;48.606;9.096;2023-04-06T15:03:34;8.50;;;5.13;;
479;SDS011;226;48.606;9.096;2023-04-06T15:06:03;10.63;;;4.47;;
479;SDS011;226;48.606;9.096;2023-04-06T15:08:33;8.57;;;4.43;;
479;SDS011;226;48.606;9.096;2023-04-06T15:11:01;5.23;;;4.30;;
479;SDS011;226;48.606;9.096;2023-04-06T15:13:29;5.53;;;4.47;;
479;SDS011;226;48.606;9.096;2023-04-06T15:15:57;8.77;;;5.00;;
479;SDS011;226;48.606;9.096;2023-04-06T15:18:27;10.30;;;5.63;;
479;SDS011;226;48.606;9.096;2023-04-06T15:20:55;8.03;;;4.53;;
479;SDS011;226;48.606;9.096;2023-04-06T15:23:24;8.80;;;4.97;;
479;SDS011;226;48.606;9.096;2023-04-06T15:25:53;10.20;;;4.63;;
479;SDS011;226;48.606;9.096;2023-04-06T15:28:21;6.93;;;4.47;;
479;SDS011;226;48.606;9.096;2023-04-06T15:30:49;9.23;;;4.17;;
479;SDS011;226;48.606;9.096;2023-04-06T15:33:19;3.60;;;2.83;;
479;SDS011;226;48.606;9.096;2023-04-06T15:35:48;9.13;;;4.20;;
479;SDS011;226;48.606;9.096;2023-04-06T15:38:16;10.23;;;4.70;;
479;SDS011;226;48.606;9.096;2023-04-06T15:40:45;6.03;;;3.67;;
479;SDS011;226;48.606;9.096;2023-04-06T15:43:15;6.30;;;3.30;;
479;SDS011;226;48.606;9.096;2023-04-06T15:45:43;9.37;;;4.77;;
479;SDS011;226;48.606;9.096;2023-04-06T15:48:12;6.60;;;3.93;;
479;SDS011;226;48.606;9.096;2023-04-06T15:50:40;4.87;;;3.10;;